createdAt,value
2022-08-22T00:01:54.340Z,101834.72
2022-08-22T00:02:57.967Z,101853.91
2022-08-22T00:04:47.436Z,101829.34
2022-08-22T00:07:32.498Z,101828.56
2022-08-22T00:10:23.566Z,101832.94
2022-08-22T00:13:10.556Z,101832.94
2022-08-22T00:15:44.277Z,101836.25
2022-08-22T00:18:13.684Z,101833.53
2022-08-22T00:20:55.268Z,101826.00
2022-08-22T00:23:30.303Z,101832.19
2022-08-22T00:26:24.144Z,101826.25
2022-08-22T00:29:00.686Z,101825.16
2022-08-22T00:31:33.004Z,101827.59
2022-08-22T00:34:29.400Z,101826.56
2022-08-22T00:37:08.113Z,101829.84
2022-08-22T00:39:55.429Z,101831.25
2022-08-22T00:42:29.491Z,101840.75
2022-08-22T00:45:32.481Z,101835.91
2022-08-22T00:48:27.081Z,101833.00
2022-08-22T00:51:14.247Z,101844.41
2022-08-22T00:54:00.197Z,101844.97
2022-08-22T00:56:37.429Z,101841.78
2022-08-22T00:59:31.514Z,101840.44
2022-08-22T01:02:13.043Z,101845.56
2022-08-22T01:05:01.247Z,101843.44
2022-08-22T01:07:38.275Z,101844.00
2022-08-22T01:10:32.766Z,101841.88
2022-08-22T01:13:14.523Z,101846.25
2022-08-22T01:15:42.762Z,101844.66
2022-08-22T01:18:38.129Z,101847.13
2022-08-22T01:21:20.754Z,101848.47
2022-08-22T01:25:03.298Z,101846.38
2022-08-22T01:28:05.224Z,101848.22
2022-08-22T01:30:57.343Z,101845.50
2022-08-22T01:33:55.990Z,101849.00
2022-08-22T01:36:40.358Z,101840.94
2022-08-22T01:39:30.205Z,101854.75
2022-08-22T01:42:03.011Z,101845.84
2022-08-22T01:44:46.880Z,101847.47
2022-08-22T01:47:23.540Z,101847.69
2022-08-22T01:49:59.381Z,101843.66
2022-08-22T01:52:37.334Z,101849.31
2022-08-22T01:55:31.962Z,101848.75
2022-08-22T01:58:03.502Z,101841.94
2022-08-22T02:00:51.241Z,101844.13
2022-08-22T02:03:27.580Z,101846.31
2022-08-22T02:06:14.482Z,101843.03
2022-08-22T02:08:53.876Z,101848.75
2022-08-22T02:11:40.181Z,101840.88
2022-08-22T02:14:18.916Z,101838.75
2022-08-22T02:16:50.340Z,101847.41
2022-08-22T02:19:16.762Z,101841.97
2022-08-22T02:22:20.265Z,101834.16
2022-08-22T02:25:09.284Z,101838.81
2022-08-22T02:27:54.223Z,101830.47
2022-08-22T02:30:26.612Z,101826.94
2022-08-22T02:33:15.488Z,101825.84
2022-08-22T02:36:00.254Z,101834.50
2022-08-22T02:38:40.922Z,101827.97
2022-08-22T02:41:18.084Z,101822.84
2022-08-22T02:43:56.701Z,101814.78
2022-08-22T02:46:23.346Z,101824.53
2022-08-22T02:49:06.706Z,101825.63
2022-08-22T02:52:07.155Z,101828.09
2022-08-22T02:54:45.395Z,101826.47
2022-08-22T02:57:39.667Z,101830.84
2022-08-22T03:00:31.353Z,101824.09
2022-08-22T03:03:04.886Z,101818.69
2022-08-22T03:05:37.196Z,101829.22
2022-08-22T03:08:22.542Z,101821.41
2022-08-22T03:11:02.189Z,101818.97
2022-08-22T03:13:48.026Z,101817.88
2022-08-22T03:16:45.508Z,101815.16
2022-08-22T03:19:27.653Z,101813.53
2022-08-22T03:22:03.046Z,101824.91
2022-08-22T03:25:04.813Z,101821.09
2022-08-22T03:27:50.082Z,101810.81
2022-08-22T03:30:27.579Z,101806.19
2022-08-22T03:33:13.963Z,101807.00
2022-08-22T03:35:46.485Z,101801.59
2022-08-22T03:38:34.384Z,101800.78
2022-08-22T03:41:00.745Z,101798.06
2022-08-22T03:43:51.685Z,101808.09
2022-08-22T03:46:51.340Z,101789.94
2022-08-22T03:49:45.721Z,101791.84
2022-08-22T03:52:33.297Z,101800.28
2022-08-22T03:55:14.792Z,101794.03
2022-08-22T03:58:27.828Z,101797.56
2022-08-22T04:01:25.109Z,101804.28
2022-08-22T04:04:36.433Z,101799.16
2022-08-22T04:07:32.309Z,101798.88
2022-08-22T04:10:19.776Z,101799.69
2022-08-22T04:13:13.059Z,101808.63
2022-08-22T04:15:46.427Z,101805.91
2022-08-22T04:18:34.454Z,101798.34
2022-08-22T04:21:16.243Z,101806.47
2022-08-22T04:23:48.608Z,101804.06
2022-08-22T04:27:10.393Z,101799.97
2022-08-22T04:29:45.220Z,101804.28
2022-08-22T04:32:34.209Z,101802.69
2022-08-22T04:35:10.863Z,101812.41
2022-08-22T04:37:44.780Z,101815.13
2022-08-22T04:40:25.416Z,101809.72
2022-08-22T04:43:01.136Z,101814.03
2022-08-22T04:45:37.551Z,101810.50
2022-08-22T04:48:16.695Z,101818.63
2022-08-22T04:50:54.937Z,101820.53
2022-08-22T04:53:49.837Z,101818.34
2022-08-22T04:56:36.015Z,101816.75
2022-08-22T04:59:12.696Z,101821.06
2022-08-22T05:01:53.677Z,101822.94
2022-08-22T05:04:45.879Z,101822.16
2022-08-22T05:07:22.151Z,101815.38
2022-08-22T05:09:58.929Z,101822.41
2022-08-22T05:12:50.762Z,101828.66
2022-08-22T05:15:23.179Z,101824.84
2022-08-22T05:17:52.955Z,101820.75
2022-08-22T05:20:23.519Z,101823.47
2022-08-22T05:22:59.319Z,101814.56
2022-08-22T05:25:32.317Z,101819.38
2022-08-22T05:28:31.213Z,101818.03
2022-08-22T05:30:57.896Z,101826.63
2022-08-22T05:33:29.960Z,101835.59
2022-08-22T05:36:06.633Z,101836.09
2022-08-22T05:38:37.983Z,101843.13
2022-08-22T05:41:09.319Z,101846.38
2022-08-22T05:43:42.544Z,101852.81
2022-08-22T05:46:19.412Z,101857.13
2022-08-22T05:49:03.656Z,101854.41
2022-08-22T05:51:39.424Z,101857.34
2022-08-22T05:54:15.060Z,101861.41
2022-08-22T05:56:46.049Z,101851.34
2022-08-22T05:59:24.561Z,101848.06
2022-08-22T06:02:09.827Z,101851.50
2022-08-22T06:04:45.513Z,101854.47
2022-08-22T06:07:28.187Z,101859.59
2022-08-22T06:10:25.761Z,101852.53
2022-08-22T06:13:03.666Z,101856.84
2022-08-22T06:15:39.966Z,101864.09
2022-08-22T06:18:12.656Z,101865.72
2022-08-22T06:20:52.374Z,101866.25
2022-08-22T06:23:26.580Z,101870.22
2022-08-22T06:25:57.164Z,101864.72
2022-08-22T06:28:26.770Z,101876.59
2022-08-22T06:30:56.022Z,101874.41
2022-08-22T06:33:26.571Z,101869.00
2022-08-22T06:36:20.535Z,101872.97
2022-08-22T06:39:05.526Z,101875.91
2022-08-22T06:41:37.546Z,101874.66
2022-08-22T06:44:05.785Z,101877.53
2022-08-22T06:46:36.237Z,101877.75
2022-08-22T06:49:06.424Z,101877.59
2022-08-22T06:51:36.177Z,101870.44
2022-08-22T06:54:05.198Z,101875.97
2022-08-22T06:56:41.520Z,101876.50
2022-08-22T06:59:14.603Z,101882.47
2022-08-22T07:01:51.055Z,101886.44
2022-08-22T07:04:21.208Z,101892.31
2022-08-22T07:06:50.375Z,101886.78
2022-08-22T07:09:23.472Z,101878.38
2022-08-22T07:11:52.130Z,101881.81
2022-08-22T07:14:29.731Z,101885.25
2022-08-22T07:16:59.256Z,101886.22
2022-08-22T07:19:32.908Z,101888.28
2022-08-22T07:22:09.776Z,101883.38
2022-08-22T07:24:36.496Z,101881.00
2022-08-22T07:27:08.413Z,101877.78
2022-08-22T07:29:56.563Z,101875.19
2022-08-22T07:32:30.277Z,101871.66
2022-08-22T07:35:15.786Z,101873.69
2022-08-22T07:37:54.328Z,101874.63
2022-08-22T07:40:27.292Z,101874.00
2022-08-22T07:43:23.073Z,101870.84
2022-08-22T07:45:54.364Z,101866.69
2022-08-22T07:48:26.972Z,101864.06
2022-08-22T07:51:08.726Z,101866.66
2022-08-22T07:53:41.544Z,101862.81
2022-08-22T07:56:16.636Z,101860.03
2022-08-22T07:58:47.072Z,101867.00
2022-08-22T08:01:19.269Z,101860.88
2022-08-22T08:04:01.482Z,101849.94
2022-08-22T08:06:29.241Z,101854.19
2022-08-22T08:08:57.259Z,101845.38
2022-08-22T08:11:27.899Z,101845.88
2022-08-22T08:14:05.135Z,101839.13
2022-08-22T08:16:40.821Z,101833.25
2022-08-22T08:19:08.856Z,101829.53
2022-08-22T08:21:47.356Z,101821.19
2022-08-22T08:24:19.278Z,101824.84
2022-08-22T08:27:19.529Z,101816.13
2022-08-22T08:29:54.436Z,101824.56
2022-08-22T08:32:24.308Z,101826.00
2022-08-22T08:34:52.125Z,101818.66
2022-08-22T08:37:23.690Z,101818.59
2022-08-22T08:39:53.414Z,101817.97
2022-08-22T08:42:54.817Z,101819.88
2022-08-22T08:45:32.505Z,101824.13
2022-08-22T08:48:07.920Z,101822.13
2022-08-22T08:50:59.300Z,101815.81
2022-08-22T08:53:58.494Z,101815.47
2022-08-22T08:56:34.162Z,101821.69
2022-08-22T08:59:14.515Z,101823.41
2022-08-22T09:02:13.926Z,101820.13
2022-08-22T09:04:58.965Z,101818.53
2022-08-22T09:07:28.308Z,101820.38
2022-08-22T09:10:32.531Z,101817.91
2022-08-22T09:13:40.845Z,101819.28
2022-08-22T09:16:27.633Z,101811.50
2022-08-22T09:19:28.194Z,101811.97
2022-08-22T09:22:14.306Z,101820.22
2022-08-22T09:24:47.179Z,101813.50
2022-08-22T09:27:32.316Z,101818.13
2022-08-22T09:30:15.382Z,101813.72
2022-08-22T09:32:54.540Z,101809.34
2022-08-22T09:35:28.124Z,101802.88
2022-08-22T09:38:28.624Z,101802.75
2022-08-22T09:41:23.355Z,101796.53
2022-08-22T09:44:29.267Z,101800.88
2022-08-22T09:47:24.533Z,101794.00
2022-08-22T09:50:03.907Z,101797.63
2022-08-22T09:52:51.304Z,101797.72
2022-08-22T09:55:42.803Z,101796.31
2022-08-22T09:58:30.471Z,101788.19
2022-08-22T10:01:02.176Z,101788.38
2022-08-22T10:04:23.234Z,101785.63
2022-08-22T10:07:14.603Z,101785.63
2022-08-22T10:09:44.102Z,101779.31
2022-08-22T10:12:20.691Z,101774.41
2022-08-22T10:15:16.043Z,101782.31
2022-08-22T10:17:55.048Z,101779.81
2022-08-22T10:20:30.142Z,101775.84
2022-08-22T10:23:00.316Z,101778.19
2022-08-22T10:25:49.888Z,101766.31
2022-08-22T10:28:34.603Z,101769.16
2022-08-22T10:31:25.234Z,101768.59
2022-08-22T10:34:12.328Z,101759.75
2022-08-22T10:36:53.965Z,101754.41
2022-08-22T10:39:26.753Z,101757.66
2022-08-22T10:42:28.954Z,101748.03
2022-08-22T10:45:23.788Z,101756.50
2022-08-22T10:48:04.808Z,101750.06
2022-08-22T10:50:45.442Z,101744.75
2022-08-22T10:53:37.157Z,101744.91
2022-08-22T10:56:13.927Z,101741.34
2022-08-22T10:58:44.647Z,101744.03
2022-08-22T11:01:41.499Z,101737.28
2022-08-22T11:04:16.885Z,101737.72
2022-08-22T11:06:54.807Z,101741.56
2022-08-22T11:09:36.922Z,101744.38
2022-08-22T11:12:34.605Z,101742.72
2022-08-22T11:15:34.432Z,101751.09
2022-08-22T11:18:17.533Z,101747.66
2022-08-22T11:21:00.761Z,101746.06
2022-08-22T11:23:53.208Z,101742.00
2022-08-22T11:26:47.086Z,101739.25
2022-08-22T11:29:43.554Z,101736.13
2022-08-22T11:32:57.962Z,101729.53
2022-08-22T11:35:36.791Z,101735.34
2022-08-22T11:38:32.832Z,101735.38
2022-08-22T11:41:12.553Z,101734.56
2022-08-22T11:43:49.565Z,101730.41
2022-08-22T11:46:43.275Z,101729.34
2022-08-22T11:49:32.738Z,101726.16
2022-08-22T11:52:33.335Z,101730.03
2022-08-22T11:55:16.818Z,101729.66
2022-08-22T11:57:54.922Z,101732.91
2022-08-22T12:00:25.361Z,101723.75
2022-08-22T12:03:31.792Z,101723.31
2022-08-22T12:06:05.003Z,101714.28
2022-08-22T12:08:34.028Z,101714.53
2022-08-22T12:11:25.599Z,101712.81
2022-08-22T12:14:02.386Z,101710.50
2022-08-22T12:16:45.069Z,101714.50
2022-08-22T12:19:42.027Z,101706.81
2022-08-22T12:22:34.570Z,101712.59
2022-08-22T12:25:38.598Z,101711.31
2022-08-22T12:28:41.644Z,101711.81
2022-08-22T12:31:30.758Z,101703.19
2022-08-22T12:34:14.364Z,101699.41
2022-08-22T12:36:58.079Z,101703.94
2022-08-22T12:40:18.276Z,101701.28
2022-08-22T12:43:19.995Z,101696.09
2022-08-22T12:46:16.546Z,101700.44
2022-08-22T12:48:59.737Z,101688.56
2022-08-22T12:51:41.076Z,101691.63
2022-08-22T12:55:01.433Z,101686.84
2022-08-22T12:57:58.082Z,101688.28
2022-08-22T13:00:40.237Z,101678.50
2022-08-22T13:03:12.714Z,101675.13
2022-08-22T13:05:56.757Z,101675.09
2022-08-22T13:08:35.299Z,101671.53
2022-08-22T13:11:23.333Z,101676.84
2022-08-22T13:13:56.562Z,101677.31
2022-08-22T13:16:26.193Z,101667.69
2022-08-22T13:19:08.068Z,101660.66
2022-08-22T13:21:46.222Z,101665.03
2022-08-22T13:24:39.135Z,101662.03
2022-08-22T13:27:21.149Z,101665.63
2022-08-22T13:29:57.030Z,101658.88
2022-08-22T13:32:32.592Z,101673.72
2022-08-22T13:35:01.083Z,101670.38
2022-08-22T13:38:00.698Z,101660.53
2022-08-22T13:40:30.744Z,101659.97
2022-08-22T13:43:11.308Z,101646.59
2022-08-22T13:45:42.058Z,101644.22
2022-08-22T13:48:12.036Z,101653.34
2022-08-22T13:51:04.249Z,101651.41
2022-08-22T13:53:44.166Z,101646.25
2022-08-22T13:56:31.371Z,101647.81
2022-08-22T13:59:03.176Z,101637.84
2022-08-22T14:02:18.304Z,101642.66
2022-08-22T14:04:47.796Z,101644.25
2022-08-22T14:07:24.573Z,101640.66
2022-08-22T14:10:02.782Z,101639.88
2022-08-22T14:12:50.780Z,101638.69
2022-08-22T14:15:32.100Z,101631.53
2022-08-22T14:18:18.459Z,101626.03
2022-08-22T14:20:47.558Z,101633.94
2022-08-22T14:23:23.918Z,101627.59
2022-08-22T14:25:54.061Z,101629.94
2022-08-22T14:28:32.266Z,101624.41
2022-08-22T14:31:07.240Z,101626.75
2022-08-22T14:33:39.891Z,101625.22
2022-08-22T14:36:19.039Z,101615.75
2022-08-22T14:38:57.806Z,101617.28
2022-08-22T14:42:04.153Z,101618.81
2022-08-22T14:44:44.304Z,101612.78
2022-08-22T14:47:32.346Z,101595.06
2022-08-22T14:50:38.859Z,101610.13
2022-08-22T14:53:12.917Z,101608.56
2022-08-22T14:55:42.281Z,101606.13
2022-08-22T14:58:18.317Z,101606.13
2022-08-22T15:00:55.936Z,101604.44
2022-08-22T15:03:28.193Z,101599.63
2022-08-22T15:06:00.539Z,101602.72
2022-08-22T15:08:32.824Z,101591.59
2022-08-22T15:11:21.745Z,101601.13
2022-08-22T15:13:59.403Z,101594.16
2022-08-22T15:16:34.182Z,101594.66
2022-08-22T15:19:02.313Z,101588.31
2022-08-22T15:21:31.832Z,101588.75
2022-08-22T15:24:09.912Z,101588.31
2022-08-22T15:26:50.053Z,101588.00
2022-08-22T15:29:27.681Z,101589.22
2022-08-22T15:32:00.781Z,101588.03
2022-08-22T15:34:38.154Z,101580.13
2022-08-22T15:37:09.868Z,101581.31
2022-08-22T15:39:59.354Z,101577.38
2022-08-22T15:42:30.488Z,101580.88
2022-08-22T15:44:58.232Z,101574.19
2022-08-22T15:47:36.150Z,101578.91
2022-08-22T15:50:08.667Z,101569.81
2022-08-22T15:53:14.125Z,101574.59
2022-08-22T15:56:12.694Z,101573.41
2022-08-22T15:58:48.768Z,101569.06
2022-08-22T16:01:20.802Z,101564.66
2022-08-22T16:04:00.567Z,101563.88
2022-08-22T16:07:01.136Z,101557.50
2022-08-22T16:09:44.271Z,101552.28
2022-08-22T16:12:26.614Z,101562.66
2022-08-22T16:14:53.701Z,101552.44
2022-08-22T16:17:25.941Z,101555.13
2022-08-22T16:20:07.627Z,101553.13
2022-08-22T16:22:57.832Z,101551.56
2022-08-22T16:25:46.637Z,101549.19
2022-08-22T16:28:57.253Z,101547.16
2022-08-22T16:31:36.133Z,101536.44
2022-08-22T16:34:17.772Z,101537.91
2022-08-22T16:37:02.721Z,101543.41
2022-08-22T16:39:37.235Z,101539.84
2022-08-22T16:42:12.824Z,101538.31
2022-08-22T16:44:45.555Z,101528.38
2022-08-22T16:47:16.811Z,101530.78
2022-08-22T16:49:48.880Z,101529.19
2022-08-22T16:52:24.426Z,101528.66
2022-08-22T16:55:01.227Z,101532.72
2022-08-22T16:58:05.595Z,101525.59
2022-08-22T17:00:44.053Z,101528.59
2022-08-22T17:03:20.569Z,101534.53
2022-08-22T17:06:18.198Z,101526.00
2022-08-22T17:08:56.992Z,101527.94
2022-08-22T17:11:51.368Z,101523.25
2022-08-22T17:14:54.585Z,101527.59
2022-08-22T17:17:36.233Z,101517.44
2022-08-22T17:20:22.800Z,101525.00
2022-08-22T17:23:00.107Z,101523.91
2022-08-22T17:25:36.425Z,101522.09
2022-08-22T17:28:39.993Z,101522.75
2022-08-22T17:31:15.749Z,101516.34
2022-08-22T17:34:02.440Z,101522.63
2022-08-22T17:36:42.609Z,101518.75
2022-08-22T17:39:39.338Z,101529.94
2022-08-22T17:42:23.862Z,101527.38
2022-08-22T17:45:03.388Z,101534.31
2022-08-22T17:47:47.374Z,101525.72
2022-08-22T17:50:25.953Z,101531.22
2022-08-22T17:52:59.492Z,101538.84
2022-08-22T17:55:32.604Z,101534.38
2022-08-22T17:58:36.061Z,101536.78
2022-08-22T18:01:20.033Z,101537.59
2022-08-22T18:03:57.946Z,101531.69
2022-08-22T18:06:30.494Z,101538.00
2022-08-22T18:09:18.552Z,101539.59
2022-08-22T18:11:52.650Z,101544.22
2022-08-22T18:14:40.514Z,101544.19
2022-08-22T18:17:18.174Z,101537.69
2022-08-22T18:20:04.672Z,101539.38
2022-08-22T18:22:41.058Z,101540.59
2022-08-22T18:25:31.996Z,101538.72
2022-08-22T18:28:10.048Z,101542.25
2022-08-22T18:30:54.378Z,101542.44
2022-08-22T18:33:41.808Z,101542.47
2022-08-22T18:36:21.095Z,101548.06
2022-08-22T18:39:04.270Z,101550.66
2022-08-22T18:41:50.217Z,101555.09
2022-08-22T18:44:23.644Z,101555.25
2022-08-22T18:46:52.810Z,101559.66
2022-08-22T18:49:22.124Z,101560.25
2022-08-22T18:52:14.836Z,101560.69
2022-08-22T18:54:55.421Z,101561.03
2022-08-22T18:57:45.025Z,101565.31
2022-08-22T19:00:16.961Z,101573.22
2022-08-22T19:03:12.659Z,101578.06
2022-08-22T19:06:12.495Z,101591.56
2022-08-22T19:08:55.808Z,101583.69
2022-08-22T19:11:40.904Z,101590.41
2022-08-22T19:14:21.911Z,101591.53
2022-08-22T19:17:17.860Z,101593.13
2022-08-22T19:20:15.268Z,101598.59
2022-08-22T19:22:42.644Z,101606.00
2022-08-22T19:25:15.204Z,101606.09
2022-08-22T19:28:02.461Z,101607.50
2022-08-22T19:30:50.411Z,101608.00
2022-08-22T19:33:16.753Z,101613.41
2022-08-22T19:36:05.386Z,101613.22
2022-08-22T19:38:59.884Z,101607.38
2022-08-22T19:41:39.420Z,101607.44
2022-08-22T19:44:34.557Z,101608.31
2022-08-22T19:47:29.061Z,101606.59
2022-08-22T19:50:17.962Z,101604.44
2022-08-22T19:52:47.125Z,101600.50
2022-08-22T19:55:22.286Z,101606.00
2022-08-22T19:58:05.499Z,101604.59
2022-08-22T20:00:57.681Z,101598.69
2022-08-22T20:03:43.828Z,101600.47
2022-08-22T20:06:43.942Z,101600.97
2022-08-22T20:09:32.707Z,101594.91
2022-08-22T20:12:15.140Z,101603.88
2022-08-22T20:14:44.203Z,101607.13
2022-08-22T20:17:25.783Z,101599.78
2022-08-22T20:20:17.640Z,101600.72
2022-08-22T20:22:49.502Z,101601.69
2022-08-22T20:25:43.136Z,101605.88
2022-08-22T20:28:33.783Z,101602.06
2022-08-22T20:31:04.657Z,101598.41
2022-08-22T20:33:35.392Z,101599.81
2022-08-22T20:36:06.164Z,101595.53
2022-08-22T20:38:55.400Z,101591.84
2022-08-22T20:41:36.890Z,101589.44
2022-08-22T20:44:23.706Z,101590.38
2022-08-22T20:46:57.475Z,101583.13
2022-08-22T20:49:31.471Z,101584.09
2022-08-22T20:52:00.859Z,101590.53
2022-08-22T20:54:33.025Z,101588.59
2022-08-22T20:57:09.968Z,101589.56
2022-08-22T20:59:41.404Z,101588.88
2022-08-22T21:02:25.737Z,101586.34
2022-08-22T21:05:00.173Z,101586.00
2022-08-22T21:07:32.545Z,101590.78
2022-08-22T21:10:40.518Z,101589.34
2022-08-22T21:13:19.705Z,101588.22
2022-08-22T21:15:50.713Z,101588.84
2022-08-22T21:18:34.089Z,101594.25
2022-08-22T21:21:20.499Z,101600.97
2022-08-22T21:23:52.471Z,101600.47
2022-08-22T21:26:21.094Z,101586.69
2022-08-22T21:28:58.753Z,101589.53
2022-08-22T21:31:30.162Z,101587.13
2022-08-22T21:33:57.235Z,101587.63
2022-08-22T21:36:27.366Z,101580.09
2022-08-22T21:39:06.451Z,101576.03
2022-08-22T21:41:47.237Z,101581.31
2022-08-22T21:44:32.097Z,101582.75
2022-08-22T21:47:30.707Z,101580.81
2022-08-22T21:50:13.173Z,101579.00
2022-08-22T21:52:59.616Z,101583.28
2022-08-22T21:55:38.224Z,101574.47
2022-08-22T21:58:32.625Z,101584.38
2022-08-22T22:01:27.291Z,101578.06
2022-08-22T22:03:54.627Z,101576.78
2022-08-22T22:06:21.077Z,101582.84
2022-08-22T22:08:47.758Z,101584.88
2022-08-22T22:11:15.380Z,101586.31
2022-08-22T22:13:42.307Z,101580.22
2022-08-22T22:16:12.037Z,101581.13
2022-08-22T22:18:39.522Z,101575.69
2022-08-22T22:21:06.337Z,101577.91
2022-08-22T22:23:32.820Z,101583.19
2022-08-22T22:26:02.266Z,101582.78
2022-08-22T22:28:31.703Z,101582.56
2022-08-22T22:30:58.195Z,101578.88
2022-08-22T22:33:28.020Z,101581.22
2022-08-22T22:35:57.054Z,101585.97
2022-08-22T22:38:24.394Z,101580.63
2022-08-22T22:40:52.174Z,101587.69
2022-08-22T22:43:18.814Z,101580.97
2022-08-22T22:45:45.283Z,101578.06
2022-08-22T22:48:11.810Z,101578.66
2022-08-22T22:50:50.332Z,101589.81
2022-08-22T22:53:19.912Z,101591.13
2022-08-22T22:55:59.573Z,101586.69
2022-08-22T22:58:26.992Z,101589.59
2022-08-22T23:00:53.404Z,101585.47
2022-08-22T23:03:20.162Z,101583.84
2022-08-22T23:05:46.644Z,101589.91
2022-08-22T23:08:13.011Z,101595.47
2022-08-22T23:10:39.452Z,101593.84
2022-08-22T23:13:06.479Z,101587.09
2022-08-22T23:15:32.820Z,101588.84
2022-08-22T23:17:59.304Z,101588.66
2022-08-22T23:20:25.841Z,101597.41
2022-08-22T23:22:52.349Z,101591.47
2022-08-22T23:25:18.887Z,101594.97
2022-08-22T23:27:45.315Z,101596.59
2022-08-22T23:30:18.745Z,101583.63
2022-08-22T23:32:45.114Z,101586.63
2022-08-22T23:35:11.616Z,101582.91
2022-08-22T23:37:38.139Z,101592.47
2022-08-22T23:40:07.561Z,101587.66
2022-08-22T23:42:34.057Z,101588.75
2022-08-22T23:45:00.460Z,101582.34
2022-08-22T23:47:26.948Z,101579.94
2022-08-22T23:49:53.381Z,101570.19
2022-08-22T23:52:20.712Z,101568.09
2022-08-22T23:54:47.313Z,101567.59
2022-08-22T23:57:20.684Z,101563.66
2022-08-22T23:59:57.782Z,101565.09
